CSW86 HECA-EDDH
Flight info
| Callsign | CSW86 |
|---|---|
| Flight time | N/A |
| Altitude | 38000 |
| Route | CVO L617 TANSA UL613 KOR UL53 GARTA UV60 YNN UL611 TUMBO TAZ KUSIB SIMBA EXITI GASKA MASEK MAPOX MIMVA L602 NALAX L46 ODNEK N110 AGPED AGPE1E |
| Aircraft | B747/H-ICAO/L |
Departure
| Time | 2026-05-01 10:36 |
|---|---|
| Airport | Cairo International Airport (HECA) |
Arrival
| Time | N/A |
|---|---|
| Airport | Hamburg Helmut Schmidt Airport (EDDH) |
| Time | Latitude | Longitude | Altitude | Speed | Heading |
|---|---|---|---|---|---|
| 2026-05-01 10:08 | 30.11401 | 31.40045 | 378 ft | 0 kts | 280° |
| 2026-05-01 10:24 | 30.11397 | 31.40062 | 381 ft | 3 kts | 308° |
| 2026-05-01 10:24 | 30.11364 | 31.40083 | 381 ft | 3 kts | 10° |
| 2026-05-01 10:25 | 30.11343 | 31.40075 | 381 ft | 0 kts | 54° |
| 2026-05-01 10:26 | 30.11342 | 31.40075 | 381 ft | 0 kts | 61° |
| 2026-05-01 10:26 | 30.11343 | 31.40076 | 381 ft | 1 kts | 61° |
| 2026-05-01 10:27 | 30.11357 | 31.40106 | 381 ft | 1 kts | 61° |
| 2026-05-01 10:27 | 30.11388 | 31.40153 | 381 ft | 6 kts | 47° |
| 2026-05-01 10:28 | 30.11423 | 31.40196 | 381 ft | 9 kts | 46° |
| 2026-05-01 10:28 | 30.11447 | 31.40276 | 381 ft | 5 kts | 101° |
| 2026-05-01 10:28 | 30.11432 | 31.40322 | 381 ft | 7 kts | 118° |
| 2026-05-01 10:29 | 30.11337 | 31.40430 | 381 ft | 13 kts | 136° |
| 2026-05-01 10:29 | 30.11266 | 31.40511 | 381 ft | 16 kts | 137° |
| 2026-05-01 10:30 | 30.11096 | 31.40705 | 381 ft | 17 kts | 101° |
| 2026-05-01 10:30 | 30.11132 | 31.40963 | 387 ft | 18 kts | 49° |
| 2026-05-01 10:31 | 30.11319 | 31.41220 | 381 ft | 23 kts | 47° |
| 2026-05-01 10:31 | 30.11551 | 31.41525 | 381 ft | 27 kts | 51° |
| 2026-05-01 10:32 | 30.11813 | 31.41878 | 381 ft | 31 kts | 49° |
| 2026-05-01 10:32 | 30.11955 | 31.42070 | 381 ft | 32 kts | 49° |
| 2026-05-01 10:32 | 30.12255 | 31.42478 | 381 ft | 33 kts | 47° |
| 2026-05-01 10:33 | 30.12449 | 31.42868 | 381 ft | 24 kts | 118° |
| 2026-05-01 10:33 | 30.12229 | 31.42826 | 382 ft | 16 kts | 226° |
| 2026-05-01 10:34 | 30.12207 | 31.42800 | 380 ft | 0 kts | 227° |
| 2026-05-01 10:35 | 30.12137 | 31.42707 | 381 ft | 48 kts | 230° |
| 2026-05-01 10:35 | 30.11766 | 31.42204 | 381 ft | 115 kts | 229° |
| 2026-05-01 10:35 | 30.11116 | 31.41332 | 382 ft | 169 kts | 228° |
| 2026-05-01 10:36 | 30.09284 | 31.39103 | 866 ft | 198 kts | 227° |
| 2026-05-01 10:36 | 30.08318 | 31.37887 | 1141 ft | 211 kts | 231° |
| 2026-05-01 10:36 | 30.07377 | 31.36408 | 1132 ft | 247 kts | 251° |
| 2026-05-01 10:37 | 30.07233 | 31.34418 | 1640 ft | 251 kts | 287° |
| 2026-05-01 10:37 | 30.09476 | 31.31489 | 3236 ft | 258 kts | 344° |
| 2026-05-01 10:37 | 30.11252 | 31.31211 | 4051 ft | 260 kts | 356° |
| 2026-05-01 10:38 | 30.13068 | 31.31072 | 4785 ft | 263 kts | 352° |
| 2026-05-01 10:38 | 30.14878 | 31.30700 | 5453 ft | 265 kts | 344° |
| 2026-05-01 10:38 | 30.16628 | 31.30033 | 6164 ft | 267 kts | 336° |
| 2026-05-01 10:38 | 30.18278 | 31.29068 | 6854 ft | 266 kts | 325° |
| 2026-05-01 10:39 | 30.19737 | 31.27745 | 7502 ft | 266 kts | 315° |
| 2026-05-01 10:39 | 30.21042 | 31.26209 | 8122 ft | 268 kts | 314° |
| 2026-05-01 10:39 | 30.22375 | 31.24691 | 8729 ft | 270 kts | 316° |
| 2026-05-01 10:39 | 30.23743 | 31.23240 | 9355 ft | 271 kts | 316° |
| 2026-05-01 10:40 | 30.25140 | 31.21766 | 9988 ft | 272 kts | 316° |
| 2026-05-01 10:40 | 30.26548 | 31.20247 | 10422 ft | 282 kts | 315° |
| 2026-05-01 10:40 | 30.28022 | 31.18650 | 10695 ft | 298 kts | 316° |
| 2026-05-01 10:40 | 30.29588 | 31.16962 | 10928 ft | 316 kts | 315° |
| 2026-05-01 10:41 | 30.31243 | 31.15178 | 11164 ft | 335 kts | 316° |
| 2026-05-01 10:41 | 30.32997 | 31.13289 | 11474 ft | 351 kts | 315° |
| 2026-05-01 10:41 | 30.36599 | 31.09400 | 12645 ft | 360 kts | 315° |
| 2026-05-01 10:42 | 30.38456 | 31.07396 | 13118 ft | 360 kts | 315° |
| 2026-05-01 10:42 | 30.40273 | 31.05433 | 13563 ft | 362 kts | 315° |
| 2026-05-01 10:42 | 30.42091 | 31.03468 | 13982 ft | 364 kts | 315° |
| 2026-05-01 10:42 | 30.43948 | 31.01458 | 14380 ft | 366 kts | 315° |
| 2026-05-01 10:43 | 30.45818 | 30.99434 | 14786 ft | 368 kts | 315° |
| 2026-05-01 10:43 | 30.47694 | 30.97402 | 15198 ft | 370 kts | 315° |
| 2026-05-01 10:43 | 30.49577 | 30.95361 | 15600 ft | 371 kts | 315° |
| 2026-05-01 10:43 | 30.51475 | 30.93303 | 16027 ft | 375 kts | 315° |
| 2026-05-01 10:44 | 30.53387 | 30.91228 | 16458 ft | 377 kts | 315° |
| 2026-05-01 10:44 | 30.55308 | 30.89144 | 16892 ft | 379 kts | 315° |
| 2026-05-01 10:44 | 30.56586 | 30.87757 | 17179 ft | 381 kts | 315° |
| 2026-05-01 10:44 | 30.59161 | 30.84958 | 17748 ft | 384 kts | 315° |
| 2026-05-01 10:45 | 30.61119 | 30.82829 | 18211 ft | 387 kts | 315° |
| 2026-05-01 10:45 | 30.63093 | 30.80681 | 18611 ft | 390 kts | 314° |
| 2026-05-01 10:45 | 30.65075 | 30.78524 | 19004 ft | 391 kts | 314° |
| 2026-05-01 10:45 | 30.66389 | 30.77093 | 19266 ft | 392 kts | 314° |
| 2026-05-01 10:46 | 30.68389 | 30.74913 | 19481 ft | 396 kts | 314° |
| 2026-05-01 10:46 | 30.70396 | 30.72725 | 19467 ft | 393 kts | 314° |
| 2026-05-01 10:46 | 30.72384 | 30.70558 | 19715 ft | 393 kts | 314° |
| 2026-05-01 10:46 | 30.74386 | 30.68372 | 19958 ft | 395 kts | 314° |
| 2026-05-01 10:47 | 30.76388 | 30.66184 | 20192 ft | 395 kts | 314° |
| 2026-05-01 10:47 | 30.78398 | 30.63987 | 20431 ft | 396 kts | 314° |
| 2026-05-01 10:47 | 30.80383 | 30.61818 | 20677 ft | 397 kts | 314° |
| 2026-05-01 10:47 | 30.82392 | 30.59619 | 20930 ft | 398 kts | 314° |
| 2026-05-01 10:48 | 30.84413 | 30.57405 | 21174 ft | 398 kts | 314° |
| 2026-05-01 10:48 | 30.86434 | 30.55192 | 21425 ft | 399 kts | 314° |
| 2026-05-01 10:48 | 30.88461 | 30.52970 | 21680 ft | 400 kts | 314° |
| 2026-05-01 10:48 | 30.90489 | 30.50745 | 21935 ft | 402 kts | 314° |
| 2026-05-01 10:49 | 30.92530 | 30.48504 | 22187 ft | 402 kts | 314° |
| 2026-05-01 10:49 | 30.94569 | 30.46265 | 22445 ft | 404 kts | 314° |
| 2026-05-01 10:49 | 30.96630 | 30.44000 | 22828 ft | 409 kts | 314° |
| 2026-05-01 10:49 | 30.98709 | 30.41714 | 23351 ft | 410 kts | 314° |
| 2026-05-01 10:50 | 31.00808 | 30.39404 | 23608 ft | 419 kts | 314° |
| 2026-05-01 10:50 | 31.02921 | 30.37075 | 23828 ft | 426 kts | 314° |
| 2026-05-01 10:50 | 31.05090 | 30.34686 | 24071 ft | 432 kts | 314° |
| 2026-05-01 10:50 | 31.07181 | 30.32154 | 24334 ft | 436 kts | 307° |
| 2026-05-01 10:51 | 31.08933 | 30.29239 | 24599 ft | 440 kts | 298° |
| 2026-05-01 10:51 | 31.10280 | 30.26021 | 24863 ft | 444 kts | 290° |
| 2026-05-01 10:51 | 31.11259 | 30.22603 | 25127 ft | 445 kts | 288° |
| 2026-05-01 10:51 | 31.12206 | 30.19156 | 25374 ft | 445 kts | 288° |
| 2026-05-01 10:52 | 31.13146 | 30.15718 | 25598 ft | 445 kts | 287° |
| 2026-05-01 10:52 | 31.14082 | 30.12279 | 26068 ft | 444 kts | 287° |
| 2026-05-01 10:52 | 31.15017 | 30.08846 | 26544 ft | 444 kts | 287° |
| 2026-05-01 10:52 | 31.15953 | 30.05408 | 27000 ft | 443 kts | 287° |
| 2026-05-01 10:53 | 31.16887 | 30.01975 | 27485 ft | 443 kts | 287° |
| 2026-05-01 10:53 | 31.17820 | 29.98547 | 27939 ft | 443 kts | 288° |
| 2026-05-01 10:53 | 31.19007 | 29.95234 | 28413 ft | 443 kts | 296° |
| 2026-05-01 10:53 | 31.20600 | 29.92136 | 28867 ft | 445 kts | 303° |
| 2026-05-01 10:54 | 31.22405 | 29.89251 | 29278 ft | 445 kts | 303° |
| 2026-05-01 10:54 | 31.24233 | 29.86320 | 29673 ft | 447 kts | 303° |
| 2026-05-01 10:54 | 31.26066 | 29.83376 | 30051 ft | 448 kts | 303° |
| 2026-05-01 10:54 | 31.27906 | 29.80429 | 30341 ft | 449 kts | 303° |
| 2026-05-01 10:55 | 31.29754 | 29.77469 | 30653 ft | 451 kts | 303° |
| 2026-05-01 10:55 | 31.31606 | 29.74495 | 30948 ft | 452 kts | 303° |
| 2026-05-01 10:55 | 31.33517 | 29.71546 | 31240 ft | 453 kts | 303° |
| 2026-05-01 10:55 | 31.35318 | 29.68581 | 31677 ft | 450 kts | 302° |
| 2026-05-01 10:56 | 31.37117 | 29.65576 | 32105 ft | 449 kts | 303° |
| 2026-05-01 10:56 | 31.38962 | 29.62624 | 32518 ft | 447 kts | 304° |
| 2026-05-01 10:56 | 31.40813 | 29.59705 | 32927 ft | 445 kts | 303° |
| 2026-05-01 10:56 | 31.42627 | 29.56779 | 33307 ft | 444 kts | 303° |
| 2026-05-01 10:57 | 31.44428 | 29.53838 | 33688 ft | 442 kts | 303° |
| 2026-05-01 10:57 | 31.46209 | 29.50955 | 34046 ft | 441 kts | 303° |
| 2026-05-01 10:57 | 31.48016 | 29.48051 | 34342 ft | 439 kts | 303° |
| 2026-05-01 10:57 | 31.49811 | 29.45154 | 34634 ft | 438 kts | 303° |
| 2026-05-01 10:58 | 31.51594 | 29.42260 | 34969 ft | 436 kts | 303° |
| 2026-05-01 10:58 | 31.53364 | 29.39387 | 35282 ft | 434 kts | 303° |
| 2026-05-01 10:58 | 31.55134 | 29.36522 | 35547 ft | 433 kts | 303° |
| 2026-05-01 10:58 | 31.56896 | 29.33665 | 35755 ft | 433 kts | 303° |
| 2026-05-01 10:59 | 31.58659 | 29.30802 | 35955 ft | 432 kts | 303° |
| 2026-05-01 10:59 | 31.60418 | 29.27938 | 36154 ft | 432 kts | 303° |
| 2026-05-01 10:59 | 31.62176 | 29.25069 | 36339 ft | 432 kts | 303° |
| 2026-05-01 10:59 | 31.63934 | 29.22198 | 36525 ft | 432 kts | 303° |
| 2026-05-01 11:00 | 31.65688 | 29.19336 | 36708 ft | 432 kts | 303° |
| 2026-05-01 11:00 | 31.67445 | 29.16465 | 36885 ft | 432 kts | 303° |
| 2026-05-01 11:00 | 31.69180 | 29.13628 | 37050 ft | 432 kts | 303° |
| 2026-05-01 11:00 | 31.70933 | 29.10759 | 37207 ft | 432 kts | 303° |
| 2026-05-01 11:01 | 31.72776 | 29.07962 | 37373 ft | 433 kts | 309° |
| 2026-05-01 11:01 | 31.74924 | 29.05464 | 37563 ft | 435 kts | 316° |
| 2026-05-01 11:01 | 31.77271 | 29.03200 | 37709 ft | 436 kts | 316° |
| 2026-05-01 11:01 | 31.79623 | 29.00935 | 37848 ft | 436 kts | 316° |
| 2026-05-01 11:02 | 31.81946 | 28.98692 | 37963 ft | 436 kts | 316° |
| 2026-05-01 11:02 | 31.84294 | 28.96429 | 38076 ft | 436 kts | 316° |
| 2026-05-01 11:02 | 31.86648 | 28.94163 | 38200 ft | 436 kts | 316° |
| 2026-05-01 11:02 | 31.88999 | 28.91896 | 38323 ft | 436 kts | 316° |
| 2026-05-01 11:03 | 31.91343 | 28.89630 | 38434 ft | 436 kts | 316° |
| 2026-05-01 11:03 | 31.93687 | 28.87366 | 38535 ft | 436 kts | 316° |
| 2026-05-01 11:03 | 31.96038 | 28.85094 | 38641 ft | 436 kts | 316° |
| 2026-05-01 11:04 | 32.00694 | 28.80588 | 38791 ft | 435 kts | 316° |
| 2026-05-01 11:04 | 32.05374 | 28.76053 | 38931 ft | 435 kts | 316° |
| 2026-05-01 11:05 | 32.10057 | 28.71509 | 39053 ft | 435 kts | 316° |
| 2026-05-01 11:05 | 32.14747 | 28.66951 | 39172 ft | 436 kts | 316° |
| 2026-05-01 11:06 | 32.19427 | 28.62397 | 39284 ft | 436 kts | 316° |
| 2026-05-01 11:06 | 32.24093 | 28.57850 | 39381 ft | 436 kts | 316° |
| 2026-05-01 11:07 | 32.28776 | 28.53281 | 39487 ft | 436 kts | 316° |
| 2026-05-01 11:07 | 32.31118 | 28.50993 | 39527 ft | 436 kts | 316° |
| 2026-05-01 11:07 | 32.35797 | 28.46418 | 39625 ft | 436 kts | 315° |
| 2026-05-01 11:08 | 32.40479 | 28.41834 | 39710 ft | 436 kts | 315° |
| 2026-05-01 11:09 | 32.47475 | 28.34972 | 39839 ft | 436 kts | 315° |
| 2026-05-01 11:09 | 32.52162 | 28.30367 | 39918 ft | 437 kts | 315° |
| 2026-05-01 11:10 | 32.59186 | 28.23454 | 40032 ft | 437 kts | 315° |
| 2026-05-01 11:10 | 32.63842 | 28.18863 | 40100 ft | 437 kts | 315° |
| 2026-05-01 11:11 | 32.68524 | 28.14240 | 40150 ft | 437 kts | 315° |
| 2026-05-01 11:11 | 32.73202 | 28.09614 | 40208 ft | 437 kts | 315° |
| 2026-05-01 11:12 | 32.77881 | 28.04981 | 40268 ft | 437 kts | 315° |
| 2026-05-01 11:12 | 32.82535 | 28.00366 | 40328 ft | 437 kts | 315° |
| 2026-05-01 11:13 | 32.87215 | 27.95719 | 40391 ft | 437 kts | 315° |